West Truckee, California
Current Conditions -  °F | °C
As of 4:45 PM on Saturday 22 Nov 2014 (Local Time) from KTRK Reporting Station
Broken Clouds Broken Clouds  
Wind Chill: 32°   Ceiling: 4500
Heat Index: 39°   Visibility: 10mi
Dew Point: 32°   Wind: 10mph
Humidity: 75%   Direction: 280°W
Pressure: 30.13"   Gusts: 16mph
Location:  39.337°N, 120.288°W
Report Text: KTRK 230045Z 28009G14KT 10SM SCT025 SCT035 BKN045 04/00 A3013 RMK NOSPECI LAST
Loading
Personal Weather Stations






























Interactive Weather Map New forecast layout! Learn more

10-Day Weather Forecast

Advertisements
Track Severe Weather on mobile